createdAt,value
2019-05-05T00:01:05.234Z,4.43
2019-05-05T00:03:45.711Z,4.50
2019-05-05T00:06:16.864Z,5.10
2019-05-05T00:08:46.810Z,7.63
2019-05-05T00:11:39.335Z,13.00
2019-05-05T00:14:16.765Z,9.50
2019-05-05T00:17:01.307Z,12.00
2019-05-05T00:19:33.377Z,6.50
2019-05-05T00:22:04.559Z,13.00
2019-05-05T00:24:35.155Z,4.87
2019-05-05T00:27:05.186Z,3.80
2019-05-05T00:29:35.086Z,5.17
2019-05-05T00:32:05.135Z,15.80
2019-05-05T00:34:35.250Z,9.67
2019-05-05T00:37:05.207Z,5.80
2019-05-05T00:39:35.306Z,5.60
2019-05-05T00:42:05.944Z,4.33
2019-05-05T00:44:36.318Z,4.13
2019-05-05T00:47:34.901Z,4.23
2019-05-05T00:50:06.113Z,3.57
2019-05-05T00:52:36.049Z,4.53
2019-05-05T00:55:07.295Z,3.13
2019-05-05T00:57:37.225Z,4.10
2019-05-05T01:00:18.321Z,7.40
2019-05-05T01:02:50.698Z,3.50
2019-05-05T01:05:28.078Z,3.70
2019-05-05T01:07:57.952Z,3.70
2019-05-05T01:10:29.106Z,3.73
2019-05-05T01:12:59.104Z,3.30
2019-05-05T01:15:29.077Z,3.50
2019-05-05T01:18:02.167Z,3.10
2019-05-05T01:20:31.521Z,2.60
2019-05-05T01:23:01.445Z,2.90
2019-05-05T01:25:31.510Z,2.80
2019-05-05T01:28:01.555Z,2.90
2019-05-05T01:30:35.077Z,3.10
2019-05-05T01:33:20.401Z,2.77
2019-05-05T01:35:50.365Z,3.13
2019-05-05T01:38:27.763Z,3.20
2019-05-05T01:41:12.296Z,2.60
2019-05-05T01:43:42.274Z,2.83
2019-05-05T01:46:14.184Z,3.67
2019-05-05T01:48:44.515Z,2.90
2019-05-05T01:51:14.498Z,6.03
2019-05-05T01:53:44.427Z,11.17
2019-05-05T01:56:15.396Z,17.60
2019-05-05T01:58:45.657Z,9.87
2019-05-05T02:01:15.858Z,14.87
2019-05-05T02:03:46.507Z,9.83
2019-05-05T02:06:16.438Z,9.47
2019-05-05T02:08:46.332Z,9.33
2019-05-05T02:11:16.332Z,4.43
2019-05-05T02:13:46.217Z,4.77
2019-05-05T02:16:16.140Z,3.77
2019-05-05T02:18:46.100Z,2.67
2019-05-05T02:21:16.175Z,2.43
2019-05-05T02:23:46.126Z,3.00
2019-05-05T02:26:16.121Z,3.83
2019-05-05T02:28:56.257Z,10.23
2019-05-05T02:31:36.074Z,10.87
2019-05-05T02:34:05.608Z,9.93
2019-05-05T02:36:35.754Z,11.13
2019-05-05T02:39:10.187Z,11.03
2019-05-05T02:41:41.587Z,8.17
2019-05-05T02:44:15.157Z,16.70
2019-05-05T02:46:50.593Z,15.00
2019-05-05T02:49:20.938Z,8.37
2019-05-05T02:51:51.887Z,10.77
2019-05-05T02:54:24.845Z,9.20
2019-05-05T02:56:55.710Z,4.53
2019-05-05T02:59:35.481Z,10.83
2019-05-05T03:02:17.608Z,14.33
2019-05-05T03:04:48.530Z,9.63
2019-05-05T03:07:21.263Z,4.63
2019-05-05T03:09:54.417Z,7.23
2019-05-05T03:12:27.249Z,8.10
2019-05-05T03:15:01.101Z,9.37
2019-05-05T03:17:31.598Z,5.37
2019-05-05T03:20:04.128Z,4.63
2019-05-05T03:22:34.593Z,4.57
2019-05-05T03:25:05.432Z,10.10
2019-05-05T03:27:35.515Z,7.27
2019-05-05T03:30:06.259Z,13.73
2019-05-05T03:32:36.410Z,12.53
2019-05-05T03:35:06.624Z,9.43
2019-05-05T03:37:37.153Z,9.03
2019-05-05T03:40:14.918Z,6.33
2019-05-05T03:42:53.573Z,7.10
2019-05-05T03:45:30.544Z,7.23
2019-05-05T03:48:00.551Z,9.77
2019-05-05T03:50:30.700Z,8.23
2019-05-05T03:53:01.131Z,6.43
2019-05-05T03:55:32.193Z,4.70
2019-05-05T03:58:04.083Z,10.43
2019-05-05T04:01:30.089Z,12.20
2019-05-05T04:04:17.498Z,12.90
2019-05-05T04:06:48.975Z,6.47
2019-05-05T04:09:19.133Z,5.13
2019-05-05T04:11:49.626Z,4.80
2019-05-05T04:14:19.658Z,4.57
2019-05-05T04:17:13.946Z,5.03
2019-05-05T04:19:46.239Z,5.30
2019-05-05T04:22:16.085Z,6.17
2019-05-05T04:24:45.978Z,5.23
2019-05-05T04:27:16.026Z,6.17
2019-05-05T04:29:45.911Z,4.37
2019-05-05T04:32:15.780Z,4.13
2019-05-05T04:34:45.638Z,4.80
2019-05-05T04:37:15.625Z,3.43
2019-05-05T04:39:45.485Z,4.07
2019-05-05T04:42:15.677Z,3.97
2019-05-05T04:44:45.542Z,4.20
2019-05-05T04:47:21.262Z,4.40
2019-05-05T04:50:23.902Z,4.60
2019-05-05T04:52:55.185Z,4.80
2019-05-05T04:55:25.039Z,5.40
2019-05-05T04:57:54.896Z,4.60
2019-05-05T05:00:24.760Z,5.80
2019-05-05T05:03:07.308Z,4.70
2019-05-05T05:05:58.189Z,4.63
2019-05-05T05:08:28.064Z,4.10
2019-05-05T05:10:57.965Z,4.27
2019-05-05T05:13:27.889Z,4.40
2019-05-05T05:15:57.760Z,3.93
2019-05-05T05:18:27.609Z,4.07
2019-05-05T05:20:57.482Z,3.97
2019-05-05T05:23:29.634Z,3.90
2019-05-05T05:25:58.958Z,3.70
2019-05-05T05:28:28.802Z,3.90
2019-05-05T05:30:58.669Z,3.93
2019-05-05T05:33:28.615Z,4.20
2019-05-05T05:35:58.509Z,4.00
2019-05-05T05:38:28.387Z,3.73
2019-05-05T05:41:04.451Z,3.33
2019-05-05T05:43:54.195Z,3.07
2019-05-05T05:46:36.099Z,3.47
2019-05-05T05:49:25.211Z,3.93
2019-05-05T05:51:55.166Z,3.50
2019-05-05T05:54:25.021Z,3.30
2019-05-05T05:56:54.957Z,3.57
2019-05-05T05:59:24.835Z,3.77
2019-05-05T06:02:08.730Z,4.00
2019-05-05T06:04:26.404Z,3.93
2019-05-05T06:06:57.063Z,3.60
2019-05-05T06:09:26.933Z,3.50
2019-05-05T06:11:56.963Z,3.40
2019-05-05T06:14:26.849Z,3.57
2019-05-05T06:16:56.787Z,4.07
2019-05-05T06:19:26.679Z,3.77
2019-05-05T06:21:56.589Z,3.90
2019-05-05T06:24:26.548Z,3.90
2019-05-05T06:26:57.331Z,4.50
2019-05-05T06:29:27.201Z,4.67
2019-05-05T06:31:57.067Z,3.93
2019-05-05T06:34:26.941Z,3.80
2019-05-05T06:36:56.907Z,3.30
2019-05-05T06:39:26.799Z,3.63
2019-05-05T06:42:14.662Z,3.10
2019-05-05T06:44:53.505Z,3.30
2019-05-05T06:47:27.013Z,3.23
2019-05-05T06:49:56.914Z,3.30
2019-05-05T06:52:26.782Z,2.87
2019-05-05T06:54:56.652Z,3.57
2019-05-05T06:57:26.509Z,3.53
2019-05-05T06:59:56.391Z,3.00
2019-05-05T07:02:26.250Z,3.37
2019-05-05T07:04:56.174Z,3.23
2019-05-05T07:07:26.141Z,3.20
2019-05-05T07:09:56.022Z,17.10
2019-05-05T07:12:25.886Z,7.00
2019-05-05T07:14:55.885Z,3.50
2019-05-05T07:17:25.745Z,3.97
2019-05-05T07:19:55.634Z,3.93
2019-05-05T07:22:25.517Z,5.37
2019-05-05T07:24:55.408Z,4.40
2019-05-05T07:27:25.324Z,3.03
2019-05-05T07:29:55.225Z,3.35
2019-05-05T07:32:25.086Z,3.00
2019-05-05T07:35:05.452Z,3.00
2019-05-05T07:37:35.365Z,3.17
2019-05-05T07:40:06.709Z,2.60
2019-05-05T07:42:36.593Z,2.20
2019-05-05T07:45:19.269Z,2.53
2019-05-05T07:47:39.219Z,2.90
2019-05-05T07:50:24.653Z,3.23
2019-05-05T07:52:41.234Z,3.00
2019-05-05T07:55:11.251Z,2.47
2019-05-05T07:57:41.120Z,2.70
2019-05-05T08:00:11.570Z,2.87
2019-05-05T08:02:41.430Z,2.70
2019-05-05T08:05:14.076Z,3.20
2019-05-05T08:07:44.774Z,3.00
2019-05-05T08:10:15.765Z,2.90
2019-05-05T08:12:46.441Z,2.67
2019-05-05T08:15:18.820Z,3.00
2019-05-05T08:18:20.063Z,2.60
2019-05-05T08:20:53.775Z,2.10
2019-05-05T08:23:35.247Z,1.80
2019-05-05T08:26:30.958Z,1.87
2019-05-05T08:29:18.768Z,1.80
2019-05-05T08:32:13.723Z,2.20
2019-05-05T08:34:57.388Z,2.03
2019-05-05T08:37:15.463Z,2.20
2019-05-05T08:39:45.385Z,1.70
2019-05-05T08:42:15.264Z,1.97
2019-05-05T08:44:45.942Z,1.53
2019-05-05T08:47:16.462Z,2.00
2019-05-05T08:49:46.554Z,2.00
2019-05-05T08:52:16.421Z,1.90
2019-05-05T08:54:46.312Z,1.80
2019-05-05T08:57:16.364Z,2.20
2019-05-05T08:59:46.273Z,2.03
2019-05-05T09:02:16.183Z,1.80
2019-05-05T09:04:46.105Z,2.10
2019-05-05T09:07:15.988Z,1.93
2019-05-05T09:09:45.843Z,1.83
2019-05-05T09:12:15.710Z,2.17
2019-05-05T09:14:45.596Z,2.20
2019-05-05T09:17:15.496Z,2.20
2019-05-05T09:19:45.370Z,2.37
2019-05-05T09:22:15.247Z,2.13
2019-05-05T09:24:53.674Z,2.03
2019-05-05T09:27:53.586Z,2.67
2019-05-05T09:30:37.271Z,1.90
2019-05-05T09:33:07.282Z,2.07
2019-05-05T09:35:37.222Z,1.97
2019-05-05T09:38:07.354Z,2.40
2019-05-05T09:40:40.218Z,2.17
2019-05-05T09:43:11.112Z,1.60
2019-05-05T09:45:41.578Z,1.70
2019-05-05T09:48:13.720Z,2.43
2019-05-05T09:50:43.944Z,1.70
2019-05-05T09:53:14.544Z,2.00
2019-05-05T09:55:44.593Z,1.97
2019-05-05T09:58:14.527Z,1.70
2019-05-05T10:00:46.188Z,2.00
2019-05-05T10:03:16.259Z,2.00
2019-05-05T10:05:46.472Z,1.90
2019-05-05T10:08:16.355Z,2.00
2019-05-05T10:10:46.334Z,1.73
2019-05-05T10:13:16.300Z,1.97
2019-05-05T10:15:46.184Z,1.40
2019-05-05T10:18:16.336Z,2.10
2019-05-05T10:20:46.523Z,1.70
2019-05-05T10:23:16.425Z,1.87
2019-05-05T10:25:49.024Z,1.43
2019-05-05T10:28:19.075Z,1.50
2019-05-05T10:30:49.405Z,1.83
2019-05-05T10:33:19.293Z,1.70
2019-05-05T10:35:49.362Z,1.80
2019-05-05T10:38:19.326Z,1.63
2019-05-05T10:40:49.379Z,1.80
2019-05-05T10:43:19.270Z,1.73
2019-05-05T10:45:49.176Z,1.87
2019-05-05T10:48:19.140Z,1.80
2019-05-05T10:50:49.096Z,2.00
2019-05-05T10:53:18.985Z,1.80
2019-05-05T10:55:48.883Z,2.20
2019-05-05T10:58:19.289Z,2.60
2019-05-05T11:00:56.265Z,1.73
2019-05-05T11:03:26.341Z,1.70
2019-05-05T11:05:56.603Z,1.83
2019-05-05T11:08:30.576Z,1.77
2019-05-05T11:10:59.720Z,2.30
2019-05-05T11:13:29.776Z,2.03
2019-05-05T11:15:59.687Z,1.90
2019-05-05T11:18:29.914Z,1.67
2019-05-05T11:20:59.891Z,1.90
2019-05-05T11:23:29.837Z,1.70
2019-05-05T11:25:59.823Z,1.73
2019-05-05T11:28:29.723Z,2.00
2019-05-05T11:30:59.734Z,1.70
2019-05-05T11:33:51.120Z,1.90
2019-05-05T11:36:25.388Z,3.33
2019-05-05T11:38:55.371Z,1.70
2019-05-05T11:41:25.262Z,2.07
2019-05-05T11:43:55.242Z,1.60
2019-05-05T11:46:25.124Z,1.53
2019-05-05T11:48:55.048Z,1.70
2019-05-05T11:51:25.142Z,1.67
2019-05-05T11:53:55.142Z,1.80
2019-05-05T11:56:25.036Z,1.53
2019-05-05T11:58:54.909Z,1.83
2019-05-05T12:01:24.817Z,1.87
2019-05-05T12:03:55.057Z,1.50
2019-05-05T12:06:25.022Z,1.50
2019-05-05T12:08:54.934Z,1.53
2019-05-05T12:11:24.865Z,2.03
2019-05-05T12:13:54.835Z,1.80
2019-05-05T12:16:34.503Z,1.70
2019-05-05T12:19:07.963Z,1.50
2019-05-05T12:21:37.871Z,1.70
2019-05-05T12:24:14.653Z,1.90
2019-05-05T12:26:58.852Z,1.30
2019-05-05T12:29:33.697Z,1.40
2019-05-05T12:32:03.715Z,1.60
2019-05-05T12:34:34.138Z,1.60
2019-05-05T12:37:05.302Z,1.70
2019-05-05T12:39:35.347Z,1.97
2019-05-05T12:42:05.395Z,2.73
2019-05-05T12:44:42.034Z,1.47
2019-05-05T12:47:29.665Z,1.60
2019-05-05T12:49:59.596Z,1.47
2019-05-05T12:52:29.655Z,1.60
2019-05-05T12:55:02.156Z,1.43
2019-05-05T12:57:31.180Z,1.70
2019-05-05T13:00:01.605Z,1.50
2019-05-05T13:02:31.574Z,1.50
2019-05-05T13:05:01.447Z,1.80
2019-05-05T13:07:33.684Z,1.47
2019-05-05T13:10:04.789Z,1.90
2019-05-05T13:12:34.916Z,1.40
2019-05-05T13:15:06.078Z,1.47
2019-05-05T13:17:35.953Z,1.57
2019-05-05T13:20:14.066Z,1.40
2019-05-05T13:23:01.625Z,1.40
2019-05-05T13:25:53.349Z,1.43
2019-05-05T13:28:14.548Z,2.20
2019-05-05T13:30:44.648Z,1.50
2019-05-05T13:33:14.696Z,1.60
2019-05-05T13:35:45.053Z,1.60
2019-05-05T13:38:14.988Z,2.27
2019-05-05T13:40:44.873Z,2.10
2019-05-05T13:43:14.797Z,1.97
2019-05-05T13:45:55.058Z,2.00
2019-05-05T13:48:28.132Z,1.60
2019-05-05T13:51:01.017Z,2.83
2019-05-05T13:53:31.243Z,1.73
2019-05-05T13:56:09.644Z,1.60
2019-05-05T13:58:34.262Z,1.90
2019-05-05T14:01:04.514Z,1.60
2019-05-05T14:03:34.432Z,1.73
2019-05-05T14:06:04.841Z,2.10
2019-05-05T14:08:36.336Z,2.30
2019-05-05T14:11:06.592Z,1.87
2019-05-05T14:13:36.492Z,2.00
2019-05-05T14:16:06.710Z,1.83
2019-05-05T14:18:36.657Z,2.27
2019-05-05T14:21:06.553Z,1.83
2019-05-05T14:23:57.086Z,1.57
2019-05-05T14:26:28.458Z,1.87
2019-05-05T14:28:58.724Z,2.30
2019-05-05T14:31:35.085Z,1.53
2019-05-05T14:34:11.173Z,1.80
2019-05-05T14:37:11.112Z,1.43
2019-05-05T14:39:40.855Z,1.47
2019-05-05T14:42:10.725Z,1.30
2019-05-05T14:44:40.642Z,1.67
2019-05-05T14:47:10.519Z,1.40
2019-05-05T14:49:40.464Z,1.30
2019-05-05T14:52:10.642Z,1.63
2019-05-05T14:54:40.563Z,1.50
2019-05-05T14:57:10.533Z,1.33
2019-05-05T14:59:40.423Z,1.30
2019-05-05T15:02:10.442Z,1.20
2019-05-05T15:04:43.812Z,1.60
2019-05-05T15:07:23.664Z,2.37
2019-05-05T15:10:18.851Z,2.03
2019-05-05T15:12:53.871Z,1.30
2019-05-05T15:15:23.935Z,1.73
2019-05-05T15:17:53.843Z,1.37
2019-05-05T15:20:24.477Z,1.50
2019-05-05T15:22:54.746Z,1.57
2019-05-05T15:25:24.734Z,1.60
2019-05-05T15:27:54.671Z,1.27
2019-05-05T15:30:27.121Z,1.23
2019-05-05T15:32:56.177Z,1.77
2019-05-05T15:35:26.072Z,2.00
2019-05-05T15:37:55.958Z,1.70
2019-05-05T15:40:25.840Z,1.57
2019-05-05T15:42:55.714Z,1.30
2019-05-05T15:45:26.456Z,1.30
2019-05-05T15:47:56.482Z,1.53
2019-05-05T15:50:26.360Z,1.57
2019-05-05T15:52:56.318Z,1.90
2019-05-05T15:55:26.450Z,1.60
2019-05-05T15:57:56.497Z,1.33
2019-05-05T16:00:26.863Z,1.50
2019-05-05T16:02:56.742Z,1.37
2019-05-05T16:05:26.656Z,1.60
2019-05-05T16:07:56.557Z,1.40
2019-05-05T16:10:26.439Z,1.40
2019-05-05T16:12:56.313Z,1.60
2019-05-05T16:15:51.349Z,1.67
2019-05-05T16:18:32.506Z,1.70
2019-05-05T16:21:14.135Z,1.50
2019-05-05T16:23:47.521Z,1.73
2019-05-05T16:26:17.420Z,1.60
2019-05-05T16:28:47.289Z,1.93
2019-05-05T16:31:17.166Z,1.40
2019-05-05T16:33:48.691Z,1.63
2019-05-05T16:36:18.751Z,1.47
2019-05-05T16:38:48.633Z,1.60
2019-05-05T16:41:18.594Z,1.47
2019-05-05T16:43:48.470Z,1.43
2019-05-05T16:46:18.444Z,1.40
2019-05-05T16:48:48.358Z,1.40
2019-05-05T16:51:21.509Z,1.80
2019-05-05T16:53:51.440Z,1.53
2019-05-05T16:56:21.362Z,1.80
2019-05-05T16:58:51.222Z,1.40
2019-05-05T17:01:21.258Z,1.63
2019-05-05T17:03:51.184Z,1.30
2019-05-05T17:06:21.062Z,1.67
2019-05-05T17:08:50.971Z,1.50
2019-05-05T17:11:20.877Z,1.57
2019-05-05T17:13:56.584Z,1.47
2019-05-05T17:16:44.388Z,1.70
2019-05-05T17:19:21.649Z,4.57
2019-05-05T17:22:10.335Z,1.97
2019-05-05T17:24:40.206Z,1.73
2019-05-05T17:27:10.101Z,1.60
2019-05-05T17:29:40.044Z,1.60
2019-05-05T17:32:10.209Z,1.50
2019-05-05T17:34:40.075Z,1.50
2019-05-05T17:37:10.182Z,1.50
2019-05-05T17:39:47.027Z,1.63
2019-05-05T17:42:28.563Z,1.40
2019-05-05T17:45:11.627Z,1.57
2019-05-05T17:47:49.344Z,2.10
2019-05-05T17:50:27.121Z,2.60
2019-05-05T17:53:05.035Z,1.73
2019-05-05T17:55:40.569Z,1.93
2019-05-05T17:58:10.517Z,2.07
2019-05-05T18:00:47.198Z,2.30
2019-05-05T18:03:17.195Z,2.20
2019-05-05T18:06:09.021Z,2.17
2019-05-05T18:08:51.019Z,2.07
2019-05-05T18:11:29.465Z,1.87
2019-05-05T18:14:04.034Z,1.90
2019-05-05T18:16:34.053Z,1.67
2019-05-05T18:19:04.508Z,4.30
2019-05-05T18:21:34.886Z,2.70
2019-05-05T18:24:05.363Z,3.50
2019-05-05T18:26:35.245Z,7.03
2019-05-05T18:29:05.298Z,2.33
2019-05-05T18:31:35.336Z,2.00
2019-05-05T18:34:05.500Z,2.10
2019-05-05T18:36:35.443Z,4.13
2019-05-05T18:39:07.811Z,3.10
2019-05-05T18:41:44.034Z,2.33
2019-05-05T18:44:28.182Z,2.10
2019-05-05T18:47:18.188Z,4.20
2019-05-05T18:49:47.021Z,1.63
2019-05-05T18:52:17.373Z,2.37
2019-05-05T18:54:47.248Z,1.93
2019-05-05T18:57:17.428Z,2.00
2019-05-05T18:59:47.295Z,1.40
2019-05-05T19:02:34.781Z,28.70
2019-05-05T19:05:28.681Z,5.67
2019-05-05T19:08:04.281Z,3.40
2019-05-05T19:10:34.259Z,1.73
2019-05-05T19:13:04.192Z,2.27
2019-05-05T19:15:35.056Z,5.30
2019-05-05T19:18:06.590Z,3.67
2019-05-05T19:20:54.641Z,6.27
2019-05-05T19:23:24.578Z,2.90
2019-05-05T19:25:56.053Z,2.30
2019-05-05T19:28:26.186Z,3.30
2019-05-05T19:30:56.128Z,6.73
2019-05-05T19:33:26.061Z,12.80
2019-05-05T19:35:55.973Z,13.33
2019-05-05T19:38:25.886Z,15.97
2019-05-05T19:40:56.378Z,13.90
2019-05-05T19:43:26.395Z,11.90
2019-05-05T19:45:56.338Z,9.43
2019-05-05T19:48:26.293Z,10.77
2019-05-05T19:51:00.012Z,7.70
2019-05-05T19:53:29.911Z,7.53
2019-05-05T19:56:00.034Z,6.00
2019-05-05T19:58:29.920Z,4.40
2019-05-05T20:01:04.650Z,4.90
2019-05-05T20:03:35.431Z,3.80
2019-05-05T20:06:05.633Z,3.23
2019-05-05T20:08:40.875Z,2.57
2019-05-05T20:11:07.465Z,3.00
2019-05-05T20:13:37.353Z,2.70
2019-05-05T20:16:25.200Z,2.10
2019-05-05T20:18:55.090Z,2.77
2019-05-05T20:21:25.030Z,2.67
2019-05-05T20:23:54.905Z,2.80
2019-05-05T20:26:24.874Z,2.17
2019-05-05T20:28:55.500Z,2.20
2019-05-05T20:31:25.475Z,2.80
2019-05-05T20:34:13.429Z,3.13
2019-05-05T20:37:00.483Z,2.80
2019-05-05T20:39:30.373Z,3.13
2019-05-05T20:42:00.328Z,3.40
2019-05-05T20:44:30.296Z,3.67
2019-05-05T20:47:00.244Z,3.20
2019-05-05T20:49:30.149Z,3.67
2019-05-05T20:52:00.091Z,3.60
2019-05-05T20:54:30.057Z,3.70
2019-05-05T20:57:00.050Z,2.90
2019-05-05T20:59:31.112Z,3.17
2019-05-05T21:02:01.412Z,3.20
2019-05-05T21:04:31.318Z,2.97
2019-05-05T21:07:01.206Z,3.00
2019-05-05T21:09:31.123Z,4.03
2019-05-05T21:12:01.015Z,3.10
2019-05-05T21:14:34.642Z,4.20
2019-05-05T21:17:04.052Z,3.47
2019-05-05T21:19:34.725Z,2.53
2019-05-05T21:22:23.815Z,1.90
2019-05-05T21:24:54.337Z,2.70
2019-05-05T21:27:24.556Z,2.13
2019-05-05T21:29:54.547Z,2.43
2019-05-05T21:32:25.336Z,2.13
2019-05-05T21:34:55.651Z,2.20
2019-05-05T21:37:25.607Z,2.40
2019-05-05T21:39:55.523Z,2.50
2019-05-05T21:42:25.413Z,2.37
2019-05-05T21:44:55.355Z,2.40
2019-05-05T21:47:25.646Z,2.40
2019-05-05T21:49:55.643Z,2.83
2019-05-05T21:52:38.249Z,2.50
2019-05-05T21:55:15.307Z,2.10
2019-05-05T21:58:04.360Z,2.50
2019-05-05T22:00:54.627Z,2.73
2019-05-05T22:03:34.728Z,2.70
2019-05-05T22:06:05.295Z,2.90
2019-05-05T22:08:36.439Z,2.83
2019-05-05T22:11:07.040Z,2.53
2019-05-05T22:13:37.585Z,2.83
2019-05-05T22:16:07.654Z,3.03
2019-05-05T22:18:37.591Z,2.80
2019-05-05T22:21:22.824Z,2.93
2019-05-05T22:24:13.135Z,2.40
2019-05-05T22:26:44.595Z,3.00
2019-05-05T22:29:16.887Z,2.67
2019-05-05T22:31:46.549Z,3.23
2019-05-05T22:34:16.583Z,3.80
2019-05-05T22:36:46.560Z,3.07
2019-05-05T22:39:17.255Z,2.70
2019-05-05T22:41:47.582Z,3.93
2019-05-05T22:44:17.523Z,3.37
2019-05-05T22:46:47.806Z,3.50
2019-05-05T22:49:17.822Z,3.50
2019-05-05T22:51:47.887Z,3.63
2019-05-05T22:54:17.830Z,3.30
2019-05-05T22:56:47.955Z,3.70
2019-05-05T22:59:17.932Z,3.80
2019-05-05T23:01:48.267Z,3.17
2019-05-05T23:04:39.093Z,3.77
2019-05-05T23:07:15.068Z,3.53
2019-05-05T23:09:44.971Z,3.77
2019-05-05T23:12:14.873Z,3.57
2019-05-05T23:14:44.764Z,3.17
2019-05-05T23:17:26.419Z,3.50
2019-05-05T23:20:04.788Z,4.03
2019-05-05T23:22:50.720Z,2.97
2019-05-05T23:25:26.533Z,3.33
2019-05-05T23:27:56.439Z,3.23
2019-05-05T23:30:38.510Z,3.07
2019-05-05T23:32:58.204Z,3.37
2019-05-05T23:35:28.170Z,3.37
2019-05-05T23:37:58.161Z,3.33
2019-05-05T23:40:29.097Z,3.33
2019-05-05T23:42:59.374Z,4.00
2019-05-05T23:45:29.306Z,3.47
2019-05-05T23:47:59.216Z,3.77
2019-05-05T23:50:29.097Z,3.13
2019-05-05T23:52:59.450Z,3.10
2019-05-05T23:55:29.364Z,3.27
2019-05-05T23:57:59.418Z,4.37
